sensor_id;sensor_type;location;lat;lon;timestamp;pressure;altitude;pressure_sealevel;temperature;humidity
41230;BME280;26964;50.428;19.218;2023-04-22T00:00:50;1018.0;;;8.3;49.7
41230;BME280;26964;50.428;19.218;2023-04-22T00:01:49;1017.9;;;8.3;49.7
41230;BME280;26964;50.428;19.218;2023-04-22T00:02:49;1017.9;;;8.3;49.7
41230;BME280;26964;50.428;19.218;2023-04-22T00:03:50;1017.9;;;8.2;49.8
41230;BME280;26964;50.428;19.218;2023-04-22T00:04:49;1017.9;;;8.2;49.8
41230;BME280;26964;50.428;19.218;2023-04-22T00:05:49;1017.9;;;8.1;49.9
41230;BME280;26964;50.428;19.218;2023-04-22T00:06:49;1017.9;;;8.1;50.0
41230;BME280;26964;50.428;19.218;2023-04-22T00:07:49;1017.9;;;8.1;50.0
41230;BME280;26964;50.428;19.218;2023-04-22T00:08:49;1017.9;;;8.1;50.0
41230;BME280;26964;50.428;19.218;2023-04-22T00:09:49;1017.9;;;8.1;50.1
41230;BME280;26964;50.428;19.218;2023-04-22T00:10:49;1017.9;;;8.0;50.1
41230;BME280;26964;50.428;19.218;2023-04-22T00:11:50;1017.9;;;8.0;50.1
41230;BME280;26964;50.428;19.218;2023-04-22T00:12:49;1017.9;;;8.0;50.2
41230;BME280;26964;50.428;19.218;2023-04-22T00:13:49;1017.9;;;7.9;50.2
41230;BME280;26964;50.428;19.218;2023-04-22T00:14:49;1017.9;;;7.9;50.2
41230;BME280;26964;50.428;19.218;2023-04-22T00:15:49;1017.8;;;7.9;50.3
41230;BME280;26964;50.428;19.218;2023-04-22T00:16:49;1017.9;;;7.8;50.3
41230;BME280;26964;50.428;19.218;2023-04-22T00:17:49;1017.9;;;7.8;50.3
41230;BME280;26964;50.428;19.218;2023-04-22T00:18:49;1017.9;;;7.8;50.3
41230;BME280;26964;50.428;19.218;2023-04-22T00:20:00;1017.9;;;7.8;50.3
41230;BME280;26964;50.428;19.218;2023-04-22T00:20:49;1017.9;;;7.7;50.3
41230;BME280;26964;50.428;19.218;2023-04-22T00:21:49;1017.8;;;7.7;50.4
41230;BME280;26964;50.428;19.218;2023-04-22T00:22:50;1018.0;;;7.7;50.4
41230;BME280;26964;50.428;19.218;2023-04-22T00:23:49;1017.8;;;7.6;50.5
41230;BME280;26964;50.428;19.218;2023-04-22T00:24:49;1017.9;;;7.6;50.5
41230;BME280;26964;50.428;19.218;2023-04-22T00:25:50;1018.0;;;7.6;50.5
41230;BME280;26964;50.428;19.218;2023-04-22T00:26:50;1017.9;;;7.5;50.5
41230;BME280;26964;50.428;19.218;2023-04-22T00:27:50;1017.9;;;7.5;50.5
41230;BME280;26964;50.428;19.218;2023-04-22T00:28:49;1017.9;;;7.4;50.5
41230;BME280;26964;50.428;19.218;2023-04-22T00:29:50;1017.8;;;7.3;50.5
41230;BME280;26964;50.428;19.218;2023-04-22T00:30:49;1017.9;;;7.3;50.6
41230;BME280;26964;50.428;19.218;2023-04-22T00:31:50;1017.9;;;7.3;50.6
41230;BME280;26964;50.428;19.218;2023-04-22T00:32:49;1017.9;;;7.2;50.7
41230;BME280;26964;50.428;19.218;2023-04-22T00:33:49;1017.8;;;7.2;50.7
41230;BME280;26964;50.428;19.218;2023-04-22T00:34:49;1017.9;;;7.1;50.7
41230;BME280;26964;50.428;19.218;2023-04-22T00:35:50;1017.9;;;7.1;50.8
41230;BME280;26964;50.428;19.218;2023-04-22T00:36:49;1017.9;;;7.0;50.8
41230;BME280;26964;50.428;19.218;2023-04-22T00:37:50;1017.9;;;7.0;50.9
41230;BME280;26964;50.428;19.218;2023-04-22T00:38:49;1017.9;;;6.9;50.9
41230;BME280;26964;50.428;19.218;2023-04-22T00:39:50;1017.9;;;6.9;51.0
41230;BME280;26964;50.428;19.218;2023-04-22T00:40:49;1017.9;;;6.8;50.9
41230;BME280;26964;50.428;19.218;2023-04-22T00:41:49;1017.9;;;6.7;51.0
41230;BME280;26964;50.428;19.218;2023-04-22T00:42:49;1017.9;;;6.7;51.1
41230;BME280;26964;50.428;19.218;2023-04-22T00:43:50;1017.8;;;6.6;51.1
41230;BME280;26964;50.428;19.218;2023-04-22T00:44:50;1017.9;;;6.5;51.1
41230;BME280;26964;50.428;19.218;2023-04-22T00:45:49;1017.8;;;6.4;51.2
41230;BME280;26964;50.428;19.218;2023-04-22T00:46:49;1017.8;;;6.4;51.3
41230;BME280;26964;50.428;19.218;2023-04-22T00:47:49;1017.9;;;6.4;51.4
41230;BME280;26964;50.428;19.218;2023-04-22T00:48:49;1017.9;;;6.3;51.4
41230;BME280;26964;50.428;19.218;2023-04-22T00:49:49;1017.9;;;6.3;51.5
41230;BME280;26964;50.428;19.218;2023-04-22T00:50:50;1017.9;;;6.3;51.6
41230;BME280;26964;50.428;19.218;2023-04-22T00:51:49;1017.8;;;6.2;51.6
41230;BME280;26964;50.428;19.218;2023-04-22T00:52:49;1017.8;;;6.2;51.6
41230;BME280;26964;50.428;19.218;2023-04-22T00:53:50;1017.8;;;6.2;51.6
41230;BME280;26964;50.428;19.218;2023-04-22T00:54:50;1017.9;;;6.1;51.7
41230;BME280;26964;50.428;19.218;2023-04-22T00:55:49;1017.9;;;6.1;51.7
41230;BME280;26964;50.428;19.218;2023-04-22T00:56:49;1017.8;;;6.1;51.8
41230;BME280;26964;50.428;19.218;2023-04-22T00:57:50;1017.9;;;6.1;51.8
41230;BME280;26964;50.428;19.218;2023-04-22T00:58:49;1017.8;;;6.0;51.8
41230;BME280;26964;50.428;19.218;2023-04-22T00:59:49;1017.8;;;6.0;51.8
41230;BME280;26964;50.428;19.218;2023-04-22T01:00:50;1017.8;;;5.9;51.8
41230;BME280;26964;50.428;19.218;2023-04-22T01:01:50;1017.9;;;5.9;51.9
41230;BME280;26964;50.428;19.218;2023-04-22T01:02:49;1017.9;;;5.8;51.9
41230;BME280;26964;50.428;19.218;2023-04-22T01:03:51;1017.8;;;5.8;52.0
41230;BME280;26964;50.428;19.218;2023-04-22T01:04:49;1017.9;;;5.8;52.0
41230;BME280;26964;50.428;19.218;2023-04-22T01:05:49;1017.9;;;5.8;52.1
41230;BME280;26964;50.428;19.218;2023-04-22T01:06:51;1017.9;;;5.8;52.1
41230;BME280;26964;50.428;19.218;2023-04-22T01:07:49;1017.9;;;5.8;52.2
41230;BME280;26964;50.428;19.218;2023-04-22T01:08:50;1017.9;;;5.7;52.2
41230;BME280;26964;50.428;19.218;2023-04-22T01:09:49;1017.9;;;5.7;52.3
41230;BME280;26964;50.428;19.218;2023-04-22T01:10:50;1017.8;;;5.7;52.3
41230;BME280;26964;50.428;19.218;2023-04-22T01:11:49;1017.9;;;5.7;52.3
41230;BME280;26964;50.428;19.218;2023-04-22T01:12:50;1017.9;;;5.7;52.4
41230;BME280;26964;50.428;19.218;2023-04-22T01:13:49;1017.9;;;5.7;52.4
41230;BME280;26964;50.428;19.218;2023-04-22T01:14:49;1017.9;;;5.7;52.4
41230;BME280;26964;50.428;19.218;2023-04-22T01:15:49;1017.9;;;5.7;52.4
41230;BME280;26964;50.428;19.218;2023-04-22T01:16:50;1017.9;;;5.6;52.5
41230;BME280;26964;50.428;19.218;2023-04-22T01:17:49;1017.8;;;5.6;52.5
41230;BME280;26964;50.428;19.218;2023-04-22T01:18:50;1017.9;;;5.6;52.6
41230;BME280;26964;50.428;19.218;2023-04-22T01:19:50;1017.9;;;5.6;52.5
41230;BME280;26964;50.428;19.218;2023-04-22T01:20:50;1017.8;;;5.5;52.5
41230;BME280;26964;50.428;19.218;2023-04-22T01:21:50;1017.9;;;5.5;52.6
41230;BME280;26964;50.428;19.218;2023-04-22T01:22:53;1017.8;;;5.4;52.6
41230;BME280;26964;50.428;19.218;2023-04-22T01:23:49;1017.8;;;5.4;52.6
41230;BME280;26964;50.428;19.218;2023-04-22T01:24:49;1017.8;;;5.3;52.7
41230;BME280;26964;50.428;19.218;2023-04-22T01:25:50;1017.8;;;5.3;52.8
41230;BME280;26964;50.428;19.218;2023-04-22T01:26:50;1017.7;;;5.3;52.9
41230;BME280;26964;50.428;19.218;2023-04-22T01:27:49;1017.8;;;5.3;52.9
41230;BME280;26964;50.428;19.218;2023-04-22T01:28:54;1017.8;;;5.3;53.0
41230;BME280;26964;50.428;19.218;2023-04-22T01:29:54;1017.8;;;5.3;53.1
41230;BME280;26964;50.428;19.218;2023-04-22T01:30:55;1017.8;;;5.3;53.1
41230;BME280;26964;50.428;19.218;2023-04-22T01:31:56;1017.8;;;5.3;53.1
41230;BME280;26964;50.428;19.218;2023-04-22T01:32:54;1017.8;;;5.3;53.1
41230;BME280;26964;50.428;19.218;2023-04-22T01:33:54;1017.8;;;5.2;53.1
41230;BME280;26964;50.428;19.218;2023-04-22T01:34:54;1017.8;;;5.2;53.1
41230;BME280;26964;50.428;19.218;2023-04-22T01:35:55;1017.8;;;5.2;53.1
41230;BME280;26964;50.428;19.218;2023-04-22T01:36:57;1017.7;;;5.1;53.2
41230;BME280;26964;50.428;19.218;2023-04-22T01:37:54;1017.8;;;5.1;53.2
41230;BME280;26964;50.428;19.218;2023-04-22T01:38:54;1017.8;;;5.1;53.2
41230;BME280;26964;50.428;19.218;2023-04-22T01:39:56;1017.8;;;5.1;53.3
41230;BME280;26964;50.428;19.218;2023-04-22T01:40:55;1017.7;;;5.0;53.3
41230;BME280;26964;50.428;19.218;2023-04-22T01:42:07;1017.9;;;5.0;53.4
41230;BME280;26964;50.428;19.218;2023-04-22T01:42:54;1017.8;;;5.0;53.5
41230;BME280;26964;50.428;19.218;2023-04-22T01:43:56;1017.8;;;5.0;53.5
41230;BME280;26964;50.428;19.218;2023-04-22T01:44:55;1017.8;;;5.0;53.6
41230;BME280;26964;50.428;19.218;2023-04-22T01:45:54;1017.7;;;5.0;53.6
41230;BME280;26964;50.428;19.218;2023-04-22T01:46:55;1017.8;;;5.0;53.6
41230;BME280;26964;50.428;19.218;2023-04-22T01:47:54;1017.8;;;4.9;53.6
41230;BME280;26964;50.428;19.218;2023-04-22T01:48:54;1017.8;;;4.9;53.7
41230;BME280;26964;50.428;19.218;2023-04-22T01:49:54;1017.7;;;4.9;53.7
41230;BME280;26964;50.428;19.218;2023-04-22T01:50:56;1017.8;;;4.9;53.7
41230;BME280;26964;50.428;19.218;2023-04-22T01:51:54;1017.7;;;4.8;53.7
41230;BME280;26964;50.428;19.218;2023-04-22T01:52:54;1017.9;;;4.8;53.7
41230;BME280;26964;50.428;19.218;2023-04-22T01:53:55;1017.8;;;4.7;53.8
41230;BME280;26964;50.428;19.218;2023-04-22T01:54:55;1017.6;;;4.7;53.8
41230;BME280;26964;50.428;19.218;2023-04-22T01:55:54;1017.8;;;4.6;53.9
41230;BME280;26964;50.428;19.218;2023-04-22T01:56:54;1017.7;;;4.6;54.0
41230;BME280;26964;50.428;19.218;2023-04-22T01:57:55;1017.8;;;4.6;54.0
41230;BME280;26964;50.428;19.218;2023-04-22T01:58:54;1017.7;;;4.5;54.0
41230;BME280;26964;50.428;19.218;2023-04-22T01:59:55;1017.8;;;4.5;54.1
41230;BME280;26964;50.428;19.218;2023-04-22T02:00:55;1017.7;;;4.4;54.1
41230;BME280;26964;50.428;19.218;2023-04-22T02:01:55;1017.8;;;4.4;54.2
41230;BME280;26964;50.428;19.218;2023-04-22T02:02:54;1017.8;;;4.4;54.3
41230;BME280;26964;50.428;19.218;2023-04-22T02:03:54;1017.8;;;4.4;54.3
41230;BME280;26964;50.428;19.218;2023-04-22T02:04:55;1017.8;;;4.4;54.4
41230;BME280;26964;50.428;19.218;2023-04-22T02:05:54;1017.8;;;4.4;54.4
41230;BME280;26964;50.428;19.218;2023-04-22T02:06:54;1017.8;;;4.4;54.5
41230;BME280;26964;50.428;19.218;2023-04-22T02:07:55;1017.8;;;4.4;54.5
41230;BME280;26964;50.428;19.218;2023-04-22T02:08:55;1017.7;;;4.4;54.5
41230;BME280;26964;50.428;19.218;2023-04-22T02:09:55;1017.8;;;4.4;54.6
41230;BME280;26964;50.428;19.218;2023-04-22T02:10:54;1017.8;;;4.4;54.6
41230;BME280;26964;50.428;19.218;2023-04-22T02:11:55;1017.7;;;4.4;54.6
41230;BME280;26964;50.428;19.218;2023-04-22T02:12:54;1017.7;;;4.4;54.6
41230;BME280;26964;50.428;19.218;2023-04-22T02:13:55;1017.7;;;4.3;54.7
41230;BME280;26964;50.428;19.218;2023-04-22T02:14:54;1017.7;;;4.3;54.7
41230;BME280;26964;50.428;19.218;2023-04-22T02:15:54;1017.7;;;4.3;54.8
41230;BME280;26964;50.428;19.218;2023-04-22T02:16:55;1017.7;;;4.3;54.8
41230;BME280;26964;50.428;19.218;2023-04-22T02:17:55;1017.7;;;4.3;54.8
41230;BME280;26964;50.428;19.218;2023-04-22T02:18:54;1017.6;;;4.3;54.9
41230;BME280;26964;50.428;19.218;2023-04-22T02:19:54;1017.8;;;4.3;54.9
41230;BME280;26964;50.428;19.218;2023-04-22T02:20:55;1017.7;;;4.3;55.0
41230;BME280;26964;50.428;19.218;2023-04-22T02:21:54;1017.7;;;4.3;55.0
41230;BME280;26964;50.428;19.218;2023-04-22T02:22:55;1017.7;;;4.2;55.0
41230;BME280;26964;50.428;19.218;2023-04-22T02:23:54;1017.7;;;4.3;55.1
41230;BME280;26964;50.428;19.218;2023-04-22T02:24:55;1017.7;;;4.3;55.1
41230;BME280;26964;50.428;19.218;2023-04-22T02:25:54;1017.7;;;4.3;55.2
41230;BME280;26964;50.428;19.218;2023-04-22T02:26:55;1017.7;;;4.3;55.2
41230;BME280;26964;50.428;19.218;2023-04-22T02:27:54;1017.7;;;4.3;55.2
41230;BME280;26964;50.428;19.218;2023-04-22T02:28:54;1017.7;;;4.3;55.2
41230;BME280;26964;50.428;19.218;2023-04-22T02:29:54;1017.7;;;4.3;55.3
41230;BME280;26964;50.428;19.218;2023-04-22T02:30:55;1017.7;;;4.3;55.3
41230;BME280;26964;50.428;19.218;2023-04-22T02:31:54;1017.7;;;4.3;55.3
41230;BME280;26964;50.428;19.218;2023-04-22T02:32:55;1017.7;;;4.3;55.3
41230;BME280;26964;50.428;19.218;2023-04-22T02:33:54;1017.8;;;4.3;55.4
41230;BME280;26964;50.428;19.218;2023-04-22T02:34:54;1017.7;;;4.3;55.4
41230;BME280;26964;50.428;19.218;2023-04-22T02:35:54;1017.7;;;4.3;55.4
41230;BME280;26964;50.428;19.218;2023-04-22T02:36:54;1017.7;;;4.3;55.4
41230;BME280;26964;50.428;19.218;2023-04-22T02:37:55;1017.7;;;4.3;55.5
41230;BME280;26964;50.428;19.218;2023-04-22T02:38:55;1017.7;;;4.3;55.5
41230;BME280;26964;50.428;19.218;2023-04-22T02:39:55;1017.7;;;4.3;55.5
41230;BME280;26964;50.428;19.218;2023-04-22T02:40:54;1017.7;;;4.3;55.5
41230;BME280;26964;50.428;19.218;2023-04-22T02:41:54;1017.8;;;4.3;55.6
41230;BME280;26964;50.428;19.218;2023-04-22T02:42:54;1017.6;;;4.3;55.6
41230;BME280;26964;50.428;19.218;2023-04-22T02:43:55;1017.7;;;4.3;55.6
41230;BME280;26964;50.428;19.218;2023-04-22T02:44:54;1017.6;;;4.3;55.6
41230;BME280;26964;50.428;19.218;2023-04-22T02:45:55;1017.7;;;4.3;55.7
41230;BME280;26964;50.428;19.218;2023-04-22T02:46:54;1017.7;;;4.3;55.7
41230;BME280;26964;50.428;19.218;2023-04-22T02:47:54;1017.7;;;4.3;55.7
41230;BME280;26964;50.428;19.218;2023-04-22T02:48:55;1017.7;;;4.3;55.8
41230;BME280;26964;50.428;19.218;2023-04-22T02:49:55;1017.7;;;4.3;55.8
41230;BME280;26964;50.428;19.218;2023-04-22T02:50:56;1017.7;;;4.3;55.9
41230;BME280;26964;50.428;19.218;2023-04-22T02:51:56;1017.7;;;4.2;55.9
41230;BME280;26964;50.428;19.218;2023-04-22T02:52:55;1017.6;;;4.2;55.9
41230;BME280;26964;50.428;19.218;2023-04-22T02:53:55;1017.6;;;4.2;56.0
41230;BME280;26964;50.428;19.218;2023-04-22T02:54:55;1017.7;;;4.2;55.9
41230;BME280;26964;50.428;19.218;2023-04-22T02:55:55;1017.6;;;4.2;56.0
41230;BME280;26964;50.428;19.218;2023-04-22T02:56:55;1017.6;;;4.2;56.0
41230;BME280;26964;50.428;19.218;2023-04-22T02:57:54;1017.6;;;4.1;56.0
41230;BME280;26964;50.428;19.218;2023-04-22T02:58:55;1017.7;;;4.1;56.0
41230;BME280;26964;50.428;19.218;2023-04-22T02:59:54;1017.7;;;4.1;56.1
41230;BME280;26964;50.428;19.218;2023-04-22T03:00:55;1017.8;;;4.1;56.1
41230;BME280;26964;50.428;19.218;2023-04-22T03:01:55;1017.7;;;4.1;56.2
41230;BME280;26964;50.428;19.218;2023-04-22T03:02:55;1017.7;;;4.1;56.2
41230;BME280;26964;50.428;19.218;2023-04-22T03:03:55;1017.7;;;4.1;56.3
41230;BME280;26964;50.428;19.218;2023-04-22T03:04:54;1017.7;;;4.1;56.3
41230;BME280;26964;50.428;19.218;2023-04-22T03:05:55;1017.6;;;4.1;56.3
41230;BME280;26964;50.428;19.218;2023-04-22T03:06:54;1017.8;;;4.1;56.4
41230;BME280;26964;50.428;19.218;2023-04-22T03:07:55;1017.7;;;4.1;56.4
41230;BME280;26964;50.428;19.218;2023-04-22T03:08:54;1017.7;;;4.1;56.4
41230;BME280;26964;50.428;19.218;2023-04-22T03:09:54;1017.7;;;4.1;56.4
41230;BME280;26964;50.428;19.218;2023-04-22T03:10:54;1017.7;;;4.1;56.4
41230;BME280;26964;50.428;19.218;2023-04-22T03:11:54;1017.7;;;4.1;56.5
41230;BME280;26964;50.428;19.218;2023-04-22T03:12:55;1017.7;;;4.0;56.4
41230;BME280;26964;50.428;19.218;2023-04-22T03:13:55;1017.7;;;4.0;56.5
41230;BME280;26964;50.428;19.218;2023-04-22T03:14:55;1017.7;;;4.0;56.5
41230;BME280;26964;50.428;19.218;2023-04-22T03:15:55;1017.7;;;4.0;56.6
41230;BME280;26964;50.428;19.218;2023-04-22T03:16:55;1017.7;;;4.0;56.6
41230;BME280;26964;50.428;19.218;2023-04-22T03:17:54;1017.8;;;4.0;56.6
41230;BME280;26964;50.428;19.218;2023-04-22T03:18:54;1017.8;;;4.0;56.6
41230;BME280;26964;50.428;19.218;2023-04-22T03:19:54;1017.7;;;4.0;56.7
41230;BME280;26964;50.428;19.218;2023-04-22T03:20:54;1017.6;;;4.0;56.6
41230;BME280;26964;50.428;19.218;2023-04-22T03:21:55;1017.7;;;3.9;56.7
41230;BME280;26964;50.428;19.218;2023-04-22T03:22:54;1017.7;;;3.9;56.7
41230;BME280;26964;50.428;19.218;2023-04-22T03:23:55;1017.7;;;3.9;56.7
41230;BME280;26964;50.428;19.218;2023-04-22T03:24:55;1017.8;;;3.9;56.8
41230;BME280;26964;50.428;19.218;2023-04-22T03:25:55;1017.7;;;3.9;56.8
41230;BME280;26964;50.428;19.218;2023-04-22T03:26:54;1017.8;;;3.9;56.8
41230;BME280;26964;50.428;19.218;2023-04-22T03:27:55;1017.8;;;3.9;56.8
41230;BME280;26964;50.428;19.218;2023-04-22T03:28:55;1017.7;;;3.8;56.9
41230;BME280;26964;50.428;19.218;2023-04-22T03:29:54;1017.7;;;3.8;56.9
41230;BME280;26964;50.428;19.218;2023-04-22T03:30:54;1017.8;;;3.8;56.9
41230;BME280;26964;50.428;19.218;2023-04-22T03:31:55;1017.8;;;3.8;57.0
41230;BME280;26964;50.428;19.218;2023-04-22T03:32:54;1017.8;;;3.8;56.9
41230;BME280;26964;50.428;19.218;2023-04-22T03:33:55;1017.8;;;3.8;57.0
41230;BME280;26964;50.428;19.218;2023-04-22T03:34:54;1017.8;;;3.7;57.0
41230;BME280;26964;50.428;19.218;2023-04-22T03:35:54;1017.8;;;3.7;57.0
41230;BME280;26964;50.428;19.218;2023-04-22T03:36:54;1017.7;;;3.7;57.1
41230;BME280;26964;50.428;19.218;2023-04-22T03:37:54;1017.8;;;3.7;57.2
41230;BME280;26964;50.428;19.218;2023-04-22T03:38:55;1017.7;;;3.7;57.2
41230;BME280;26964;50.428;19.218;2023-04-22T03:39:54;1017.8;;;3.7;57.3
41230;BME280;26964;50.428;19.218;2023-04-22T03:40:54;1017.8;;;3.7;57.4
41230;BME280;26964;50.428;19.218;2023-04-22T03:41:55;1017.7;;;3.7;57.5
41230;BME280;26964;50.428;19.218;2023-04-22T03:42:54;1017.7;;;3.7;57.5
41230;BME280;26964;50.428;19.218;2023-04-22T03:43:55;1017.7;;;3.7;57.6
41230;BME280;26964;50.428;19.218;2023-04-22T03:44:55;1017.8;;;3.7;57.7
41230;BME280;26964;50.428;19.218;2023-04-22T03:45:55;1017.8;;;3.7;57.7
41230;BME280;26964;50.428;19.218;2023-04-22T03:46:54;1017.8;;;3.8;57.7
41230;BME280;26964;50.428;19.218;2023-04-22T03:47:55;1017.8;;;3.8;57.7
41230;BME280;26964;50.428;19.218;2023-04-22T03:48:54;1017.9;;;3.8;57.6
41230;BME280;26964;50.428;19.218;2023-04-22T03:49:55;1017.9;;;3.8;57.7
41230;BME280;26964;50.428;19.218;2023-04-22T03:50:54;1017.9;;;3.9;57.7
41230;BME280;26964;50.428;19.218;2023-04-22T03:51:55;1017.9;;;3.9;57.7
41230;BME280;26964;50.428;19.218;2023-04-22T03:52:54;1017.9;;;3.9;57.7
41230;BME280;26964;50.428;19.218;2023-04-22T03:53:54;1017.9;;;4.0;57.7
41230;BME280;26964;50.428;19.218;2023-04-22T03:54:55;1017.9;;;4.0;57.7
41230;BME280;26964;50.428;19.218;2023-04-22T03:55:54;1018.0;;;4.0;57.8
41230;BME280;26964;50.428;19.218;2023-04-22T03:56:54;1017.9;;;4.0;57.7
41230;BME280;26964;50.428;19.218;2023-04-22T03:57:54;1017.9;;;4.0;57.8
41230;BME280;26964;50.428;19.218;2023-04-22T03:58:54;1017.9;;;4.0;57.7
41230;BME280;26964;50.428;19.218;2023-04-22T03:59:54;1017.8;;;4.1;57.7
41230;BME280;26964;50.428;19.218;2023-04-22T04:00:54;1017.9;;;4.1;57.7
41230;BME280;26964;50.428;19.218;2023-04-22T04:01:54;1017.9;;;4.1;57.8
41230;BME280;26964;50.428;19.218;2023-04-22T04:02:54;1017.9;;;4.1;57.8
41230;BME280;26964;50.428;19.218;2023-04-22T04:03:54;1017.9;;;4.1;57.8
41230;BME280;26964;50.428;19.218;2023-04-22T04:04:54;1017.9;;;4.1;57.8
41230;BME280;26964;50.428;19.218;2023-04-22T04:05:54;1017.9;;;4.2;57.8
41230;BME280;26964;50.428;19.218;2023-04-22T04:06:54;1017.9;;;4.2;57.8
41230;BME280;26964;50.428;19.218;2023-04-22T04:07:55;1017.8;;;4.2;57.8
41230;BME280;26964;50.428;19.218;2023-04-22T04:08:55;1018.0;;;4.2;57.9
41230;BME280;26964;50.428;19.218;2023-04-22T04:09:55;1017.9;;;4.2;57.9
41230;BME280;26964;50.428;19.218;2023-04-22T04:10:55;1017.8;;;4.2;57.9
41230;BME280;26964;50.428;19.218;2023-04-22T04:11:55;1017.9;;;4.3;57.9
41230;BME280;26964;50.428;19.218;2023-04-22T04:12:54;1017.9;;;4.3;57.9
41230;BME280;26964;50.428;19.218;2023-04-22T04:13:55;1017.9;;;4.3;57.9
41230;BME280;26964;50.428;19.218;2023-04-22T04:14:54;1017.9;;;4.3;57.9
41230;BME280;26964;50.428;19.218;2023-04-22T04:15:54;1017.9;;;4.3;57.9
41230;BME280;26964;50.428;19.218;2023-04-22T04:16:55;1017.8;;;4.3;57.9
41230;BME280;26964;50.428;19.218;2023-04-22T04:17:55;1017.9;;;4.3;58.0
41230;BME280;26964;50.428;19.218;2023-04-22T04:18:55;1017.9;;;4.3;58.0
41230;BME280;26964;50.428;19.218;2023-04-22T04:19:55;1017.8;;;4.4;58.0
41230;BME280;26964;50.428;19.218;2023-04-22T04:20:55;1017.9;;;4.4;58.0
41230;BME280;26964;50.428;19.218;2023-04-22T04:21:55;1017.9;;;4.4;58.0
41230;BME280;26964;50.428;19.218;2023-04-22T04:22:55;1017.8;;;4.4;58.0
41230;BME280;26964;50.428;19.218;2023-04-22T04:23:54;1017.9;;;4.4;58.0
41230;BME280;26964;50.428;19.218;2023-04-22T04:24:54;1017.8;;;4.4;58.1
41230;BME280;26964;50.428;19.218;2023-04-22T04:25:54;1017.8;;;4.4;58.1
41230;BME280;26964;50.428;19.218;2023-04-22T04:26:54;1017.9;;;4.4;58.1
41230;BME280;26964;50.428;19.218;2023-04-22T04:27:55;1017.8;;;4.4;58.1
41230;BME280;26964;50.428;19.218;2023-04-22T04:28:54;1017.8;;;4.4;58.2
41230;BME280;26964;50.428;19.218;2023-04-22T04:29:55;1017.9;;;4.4;58.2
41230;BME280;26964;50.428;19.218;2023-04-22T04:30:57;1017.8;;;4.4;58.2
41230;BME280;26964;50.428;19.218;2023-04-22T04:32:56;1017.8;;;4.5;58.3
41230;BME280;26964;50.428;19.218;2023-04-22T04:33:57;1017.8;;;4.5;58.3
41230;BME280;26964;50.428;19.218;2023-04-22T04:34:57;1017.9;;;4.5;58.3
41230;BME280;26964;50.428;19.218;2023-04-22T04:35:57;1017.8;;;4.5;58.3
41230;BME280;26964;50.428;19.218;2023-04-22T04:36:56;1017.8;;;4.5;58.3
41230;BME280;26964;50.428;19.218;2023-04-22T04:37:57;1017.8;;;4.5;58.3
41230;BME280;26964;50.428;19.218;2023-04-22T04:38:57;1017.9;;;4.5;58.3
41230;BME280;26964;50.428;19.218;2023-04-22T04:39:57;1017.8;;;4.6;58.3
41230;BME280;26964;50.428;19.218;2023-04-22T04:40:57;1017.9;;;4.6;58.4
41230;BME280;26964;50.428;19.218;2023-04-22T04:41:57;1017.8;;;4.6;58.4
41230;BME280;26964;50.428;19.218;2023-04-22T04:42:57;1017.8;;;4.6;58.4
41230;BME280;26964;50.428;19.218;2023-04-22T04:43:57;1017.9;;;4.6;58.5
41230;BME280;26964;50.428;19.218;2023-04-22T04:44:56;1017.8;;;4.6;58.5
41230;BME280;26964;50.428;19.218;2023-04-22T04:45:57;1017.8;;;4.6;58.4
41230;BME280;26964;50.428;19.218;2023-04-22T04:46:57;1017.9;;;4.6;58.4
41230;BME280;26964;50.428;19.218;2023-04-22T04:47:57;1017.9;;;4.7;58.4
41230;BME280;26964;50.428;19.218;2023-04-22T04:48:57;1017.9;;;4.7;58.4
41230;BME280;26964;50.428;19.218;2023-04-22T04:49:58;1017.9;;;4.7;58.5
41230;BME280;26964;50.428;19.218;2023-04-22T04:50:56;1017.9;;;4.7;58.5
41230;BME280;26964;50.428;19.218;2023-04-22T04:51:56;1017.9;;;4.7;58.5
41230;BME280;26964;50.428;19.218;2023-04-22T04:52:56;1017.9;;;4.8;58.5
41230;BME280;26964;50.428;19.218;2023-04-22T04:53:56;1017.9;;;4.8;58.5
41230;BME280;26964;50.428;19.218;2023-04-22T04:54:57;1017.9;;;4.8;58.5
41230;BME280;26964;50.428;19.218;2023-04-22T04:55:57;1018.0;;;4.8;58.5
41230;BME280;26964;50.428;19.218;2023-04-22T04:56:58;1018.0;;;4.9;58.6
41230;BME280;26964;50.428;19.218;2023-04-22T04:57:57;1017.9;;;4.9;58.7
41230;BME280;26964;50.428;19.218;2023-04-22T04:58:57;1018.0;;;4.9;58.7
41230;BME280;26964;50.428;19.218;2023-04-22T04:59:57;1017.9;;;4.9;58.7
41230;BME280;26964;50.428;19.218;2023-04-22T05:00:56;1018.0;;;5.0;58.7
41230;BME280;26964;50.428;19.218;2023-04-22T05:01:56;1018.0;;;5.0;58.7
41230;BME280;26964;50.428;19.218;2023-04-22T05:02:58;1018.0;;;5.0;58.7
41230;BME280;26964;50.428;19.218;2023-04-22T05:03:57;1017.9;;;5.1;58.7
41230;BME280;26964;50.428;19.218;2023-04-22T05:04:57;1017.9;;;5.1;58.7
41230;BME280;26964;50.428;19.218;2023-04-22T05:05:57;1017.9;;;5.1;58.8
41230;BME280;26964;50.428;19.218;2023-04-22T05:06:57;1018.0;;;5.2;58.8
41230;BME280;26964;50.428;19.218;2023-04-22T05:07:58;1017.9;;;5.2;58.8
41230;BME280;26964;50.428;19.218;2023-04-22T05:08:57;1017.9;;;5.2;58.8
41230;BME280;26964;50.428;19.218;2023-04-22T05:09:59;1017.9;;;5.3;58.9
41230;BME280;26964;50.428;19.218;2023-04-22T05:11:00;1017.9;;;5.3;58.9
41230;BME280;26964;50.428;19.218;2023-04-22T05:11:57;1017.9;;;5.3;58.9
41230;BME280;26964;50.428;19.218;2023-04-22T05:12:57;1017.9;;;5.3;58.9
41230;BME280;26964;50.428;19.218;2023-04-22T05:14:02;1017.9;;;5.4;58.9
41230;BME280;26964;50.428;19.218;2023-04-22T05:14:58;1017.9;;;5.4;58.9
41230;BME280;26964;50.428;19.218;2023-04-22T05:15:56;1017.9;;;5.5;58.9
41230;BME280;26964;50.428;19.218;2023-04-22T05:16:58;1018.0;;;5.5;58.9
41230;BME280;26964;50.428;19.218;2023-04-22T05:17:57;1017.9;;;5.5;59.0
41230;BME280;26964;50.428;19.218;2023-04-22T05:19:01;1018.0;;;5.6;59.0
41230;BME280;26964;50.428;19.218;2023-04-22T05:19:58;1017.9;;;5.6;59.1
41230;BME280;26964;50.428;19.218;2023-04-22T05:20:58;1018.0;;;5.6;59.1
41230;BME280;26964;50.428;19.218;2023-04-22T05:21:57;1018.0;;;5.7;59.1
41230;BME280;26964;50.428;19.218;2023-04-22T05:23:01;1017.9;;;5.7;59.1
41230;BME280;26964;50.428;19.218;2023-04-22T09:18:03;1017.6;;;18.8;44.4
41230;BME280;26964;50.428;19.218;2023-04-22T10:37:05;1017.0;;;21.0;38.6
41230;BME280;26964;50.428;19.218;2023-04-22T11:18:58;1016.6;;;22.7;35.8
41230;BME280;26964;50.428;19.218;2023-04-22T11:20:04;1016.6;;;22.7;36.0
41230;BME280;26964;50.428;19.218;2023-04-22T11:21:02;1016.7;;;22.7;36.1
41230;BME280;26964;50.428;19.218;2023-04-22T11:22:01;1016.6;;;22.7;35.8
41230;BME280;26964;50.428;19.218;2023-04-22T11:22:59;1016.7;;;22.7;35.7
41230;BME280;26964;50.428;19.218;2023-04-22T11:24:58;1016.6;;;22.8;35.7
41230;BME280;26964;50.428;19.218;2023-04-22T11:32:59;1016.5;;;22.7;35.1
41230;BME280;26964;50.428;19.218;2023-04-22T11:33:58;1016.5;;;22.7;34.7
41230;BME280;26964;50.428;19.218;2023-04-22T12:07:59;1016.4;;;23.1;34.1
41230;BME280;26964;50.428;19.218;2023-04-22T12:08:57;1016.4;;;23.1;34.0
41230;BME280;26964;50.428;19.218;2023-04-22T12:09:57;1016.3;;;23.2;34.1
41230;BME280;26964;50.428;19.218;2023-04-22T12:10:58;1016.3;;;23.2;34.2